createdAt,value
2019-05-13T09:42:47.056Z,114624
2019-05-13T09:43:57.049Z,38656
2019-05-13T09:45:01.851Z,15544
2019-05-13T09:46:04.942Z,108896
2019-05-13T09:47:07.331Z,109600
2019-05-13T09:48:09.754Z,110432
2019-05-13T09:49:19.340Z,20704
2019-05-13T09:50:31.601Z,114720
2019-05-13T09:51:38.469Z,18032
2019-05-13T09:52:43.481Z,111712
2019-05-13T09:53:46.036Z,109728
2019-05-13T09:54:48.152Z,108064
2019-05-13T09:55:52.110Z,108480
2019-05-13T09:56:54.832Z,34336
2019-05-13T09:57:56.946Z,111968
2019-05-13T09:59:01.424Z,113600
2019-05-13T10:00:04.619Z,115360
2019-05-13T10:01:06.983Z,115680
2019-05-13T10:02:12.022Z,96736
2019-05-13T10:03:14.711Z,110112
2019-05-13T10:04:16.883Z,115360
2019-05-13T10:05:19.052Z,112576
2019-05-13T10:06:24.525Z,106912
2019-05-13T10:07:26.760Z,104800
2019-05-13T10:08:29.004Z,104736
2019-05-13T10:09:34.303Z,104768
2019-05-13T10:10:36.480Z,77280
2019-05-13T10:11:38.764Z,12532
2019-05-13T10:12:42.322Z,10668
2019-05-13T10:13:45.199Z,18600
2019-05-13T10:14:47.613Z,107360
2019-05-13T10:15:49.812Z,108896
2019-05-13T10:16:52.190Z,114304
2019-05-13T10:17:54.321Z,115104
2019-05-13T10:20:29.308Z,15464
2019-05-13T10:21:34.710Z,14572
2019-05-13T10:22:37.515Z,14360
2019-05-13T10:23:41.771Z,13992
2019-05-13T10:24:44.519Z,16060
2019-05-13T10:25:47.277Z,26944
2019-05-13T10:26:51.469Z,24064
2019-05-13T10:27:53.902Z,103488
2019-05-13T10:28:56.111Z,109696
2019-05-13T10:29:58.728Z,106976
2019-05-13T10:31:02.509Z,109856
2019-05-13T10:32:04.889Z,113024
2019-05-13T10:33:07.924Z,111552
2019-05-13T10:34:10.439Z,14464
2019-05-13T10:35:16.658Z,12508
2019-05-13T10:36:18.975Z,12600
2019-05-13T10:37:24.625Z,15300
2019-05-13T10:38:27.924Z,99296
2019-05-13T10:39:30.247Z,19456
2019-05-13T10:40:33.442Z,116352
2019-05-13T10:41:35.998Z,116608
2019-05-13T10:42:44.174Z,114336
2019-05-13T10:43:47.005Z,114848
2019-05-13T10:44:52.193Z,25664
2019-05-13T10:45:54.628Z,25344
2019-05-13T10:46:57.969Z,122528
2019-05-13T10:48:02.731Z,16268
2019-05-13T10:49:05.102Z,118560
2019-05-13T10:50:08.128Z,112288
2019-05-13T10:51:12.860Z,110176
2019-05-13T10:52:15.247Z,109952
2019-05-13T10:53:17.413Z,109312
2019-05-13T10:54:21.500Z,108064
2019-05-13T10:55:23.926Z,98688
2019-05-13T10:56:26.405Z,99232
2019-05-13T10:57:28.483Z,99296
2019-05-13T10:58:33.881Z,102272
2019-05-13T10:59:37.138Z,103040
2019-05-13T11:00:39.313Z,103520
2019-05-13T11:01:44.218Z,107616
2019-05-13T11:02:46.606Z,108000
2019-05-13T11:03:48.698Z,106592
2019-05-13T11:04:54.347Z,57664
2019-05-13T11:05:56.566Z,17512
2019-05-13T11:06:58.663Z,20960
2019-05-13T11:08:02.003Z,115616
2019-05-13T11:09:04.258Z,116512
2019-05-13T11:10:06.403Z,24608
2019-05-13T11:11:09.002Z,56000
2019-05-13T11:12:15.424Z,21696
2019-05-13T11:13:17.588Z,37728
2019-05-13T11:14:21.913Z,17276
2019-05-13T11:15:24.466Z,16532
2019-05-13T11:16:26.663Z,17472
2019-05-13T11:17:30.763Z,96032
2019-05-13T11:18:35.315Z,86688
2019-05-13T11:19:37.436Z,115584
2019-05-13T11:20:41.868Z,14644
2019-05-13T11:21:44.522Z,11904
2019-05-13T11:22:53.546Z,11520
2019-05-13T11:23:55.648Z,15212
2019-05-13T11:24:57.745Z,72960
2019-05-13T11:26:03.590Z,119264
2019-05-13T11:27:06.096Z,118080
2019-05-13T11:28:08.260Z,112448
2019-05-13T11:29:13.235Z,107008
2019-05-13T11:30:15.340Z,109792
2019-05-13T11:31:17.801Z,111392
2019-05-13T11:32:21.591Z,108800
2019-05-13T11:33:24.643Z,109024
2019-05-13T11:34:26.764Z,110272
2019-05-13T11:35:31.321Z,110752
2019-05-13T11:36:34.279Z,109088
2019-05-13T11:37:37.291Z,107680
2019-05-13T11:38:39.457Z,29536
2019-05-13T11:39:45.946Z,12988
2019-05-13T11:40:48.077Z,12452
2019-05-13T11:41:54.068Z,13116
2019-05-13T11:42:56.160Z,14164
2019-05-13T11:44:11.799Z,19840
2019-05-13T11:45:18.980Z,114272
2019-05-13T11:46:24.299Z,52096
2019-05-13T11:47:26.702Z,15328
2019-05-13T11:48:28.833Z,69824
2019-05-13T11:49:34.390Z,111072
2019-05-13T11:50:36.580Z,107808
2019-05-13T11:51:38.714Z,111776
2019-05-13T11:52:44.743Z,112608
2019-05-13T11:53:47.820Z,113248
2019-05-13T11:54:53.103Z,110368
2019-05-13T11:55:56.146Z,108992
2019-05-13T11:57:02.402Z,111264
2019-05-13T11:58:08.723Z,113376
2019-05-13T11:59:15.752Z,107520
2019-05-13T12:00:17.923Z,112352
2019-05-13T12:01:22.821Z,111968
2019-05-13T12:02:25.148Z,109856
2019-05-13T12:03:27.342Z,113664
2019-05-13T12:04:29.483Z,13396
2019-05-13T12:05:36.833Z,112640
2019-05-13T12:06:45.714Z,107776
2019-05-13T12:09:57.077Z,105952
2019-05-13T12:11:00.041Z,105696
2019-05-13T12:12:08.421Z,111296
2019-05-13T12:13:15.937Z,110592
2019-05-13T12:14:38.926Z,107680
2019-05-13T12:17:52.296Z,106240
2019-05-13T12:18:55.371Z,105696
2019-05-13T12:19:57.826Z,106400
2019-05-13T12:21:03.226Z,107488
2019-05-13T12:22:06.394Z,111872
2019-05-13T12:23:08.562Z,66304
2019-05-13T12:24:11.218Z,106432
2019-05-13T12:25:14.278Z,102976
2019-05-13T12:26:16.734Z,102976
2019-05-13T12:27:19.487Z,100736
2019-05-13T12:28:21.664Z,99456
2019-05-13T12:29:25.035Z,100992
2019-05-13T12:30:33.328Z,102208
2019-05-13T12:31:36.675Z,101824
2019-05-13T12:32:42.759Z,106080
2019-05-13T12:33:46.154Z,110208
2019-05-13T12:34:48.668Z,110464
2019-05-13T12:35:54.410Z,111616
2019-05-13T12:36:56.539Z,109184
2019-05-13T12:37:58.986Z,108608
2019-05-13T12:39:01.179Z,107712
2019-05-13T12:40:03.527Z,104128
2019-05-13T12:41:05.797Z,102176
2019-05-13T12:42:08.788Z,99456
2019-05-13T12:43:14.336Z,101184
2019-05-13T12:44:17.168Z,102336
2019-05-13T12:45:22.217Z,102368
2019-05-13T12:46:25.133Z,101824
2019-05-13T12:47:27.739Z,102208
2019-05-13T12:48:29.862Z,102848
2019-05-13T12:49:36.356Z,98304
2019-05-13T12:50:42.476Z,95712
2019-05-13T12:51:46.048Z,93056
2019-05-13T12:52:48.202Z,90880
2019-05-13T12:53:53.611Z,92544
2019-05-13T12:54:55.821Z,91968
2019-05-13T12:55:57.946Z,91616
2019-05-13T12:57:11.759Z,95584
2019-05-13T12:58:18.307Z,99104
2019-05-13T12:59:24.869Z,96608
2019-05-13T13:00:27.113Z,95968
2019-05-13T13:01:32.354Z,94080
2019-05-13T13:02:34.671Z,91616
2019-05-13T13:03:37.114Z,92640
2019-05-13T13:05:05.983Z,95648
2019-05-13T13:06:41.467Z,94848
2019-05-13T13:08:12.796Z,97728
2019-05-13T13:09:53.679Z,98784
2019-05-13T13:10:56.101Z,97984
2019-05-13T13:11:58.604Z,94848
2019-05-13T13:13:02.111Z,91200
2019-05-13T13:14:07.497Z,92096
2019-05-13T13:15:36.770Z,96768
2019-05-13T13:16:54.428Z,95360
2019-05-13T13:17:56.571Z,94272
2019-05-13T13:18:58.703Z,95776
2019-05-13T13:20:09.016Z,97472
2019-05-13T13:21:17.558Z,95104
2019-05-13T13:22:20.541Z,92064
2019-05-13T13:23:27.892Z,89792
2019-05-13T13:24:35.736Z,90720
2019-05-13T13:25:53.574Z,90496
2019-05-13T13:27:04.610Z,90240
2019-05-13T13:29:00.888Z,90464
2019-05-13T13:30:07.962Z,89696
2019-05-13T13:31:12.808Z,87136
2019-05-13T13:32:15.658Z,85536
2019-05-13T13:33:17.844Z,83808
2019-05-13T13:34:24.446Z,81472
2019-05-13T13:35:28.862Z,80864
2019-05-13T13:36:35.481Z,82304
2019-05-13T13:37:37.642Z,82176
2019-05-13T13:38:46.784Z,83168
2019-05-13T13:39:48.977Z,82624
2019-05-13T13:40:57.154Z,81696
2019-05-13T13:41:59.380Z,80416
2019-05-13T13:43:08.221Z,78656
2019-05-13T13:44:14.647Z,77664
2019-05-13T13:45:16.806Z,75424
2019-05-13T13:46:33.515Z,73056
2019-05-13T13:48:03.051Z,70720
2019-05-13T13:49:06.543Z,72832
2019-05-13T13:50:08.624Z,74112
2019-05-13T13:51:14.534Z,75168
2019-05-13T13:52:17.137Z,72416
2019-05-13T13:53:25.148Z,69792
2019-05-13T13:54:28.409Z,69920
2019-05-13T13:55:35.574Z,70944
2019-05-13T13:56:38.456Z,73728
2019-05-13T13:57:46.415Z,75680
2019-05-13T13:58:48.478Z,76288
2019-05-13T14:02:29.004Z,75808
2019-05-13T14:03:38.908Z,72864
2019-05-13T14:04:48.003Z,71040
2019-05-13T14:05:55.923Z,72800
2019-05-13T14:08:44.314Z,72288
2019-05-13T14:09:46.782Z,71680
2019-05-13T14:10:50.839Z,72864
2019-05-13T14:11:53.602Z,74400
2019-05-13T14:12:55.737Z,76448
2019-05-13T14:13:57.841Z,75456
2019-05-13T14:15:01.878Z,73728
2019-05-13T14:16:04.576Z,72960
2019-05-13T14:17:36.814Z,80672
2019-05-13T14:18:41.591Z,79424
2019-05-13T14:19:44.207Z,74112
2019-05-13T14:20:46.302Z,75360
2019-05-13T14:21:48.411Z,77632
2019-05-13T14:22:56.747Z,78304
2019-05-13T14:24:04.248Z,73120
2019-05-13T14:25:06.358Z,68192
2019-05-13T14:26:08.460Z,66784
2019-05-13T14:27:12.018Z,66816
2019-05-13T14:28:17.453Z,68288
2019-05-13T14:29:37.330Z,69248
2019-05-13T14:30:54.478Z,67360
2019-05-13T14:31:56.525Z,68512
2019-05-13T14:32:58.639Z,72288
2019-05-13T14:34:03.856Z,73984
2019-05-13T14:35:08.630Z,70336
2019-05-13T14:36:14.738Z,64832
2019-05-13T14:37:16.897Z,62848
2019-05-13T14:38:21.877Z,63040
2019-05-13T14:39:25.352Z,65600
2019-05-13T14:40:27.463Z,64992
2019-05-13T14:41:31.220Z,64384
2019-05-13T14:42:33.917Z,64896
2019-05-13T14:43:36.354Z,62816
2019-05-13T14:44:38.785Z,61888
2019-05-13T14:45:41.591Z,59840
2019-05-13T14:46:47.766Z,58752
2019-05-13T14:47:50.238Z,61312
2019-05-13T14:48:52.352Z,62400
2019-05-13T14:49:54.535Z,60960
2019-05-13T14:50:59.027Z,59264
2019-05-13T14:52:07.702Z,59488
2019-05-13T14:53:13.286Z,60032
2019-05-13T14:54:15.657Z,60192
2019-05-13T14:55:17.756Z,60640
2019-05-13T14:56:22.698Z,58784
2019-05-13T14:57:24.861Z,57664
2019-05-13T14:58:26.979Z,60832
2019-05-13T14:59:30.723Z,60544
2019-05-13T15:00:34.281Z,58944
2019-05-13T15:01:36.425Z,59904
2019-05-13T15:02:38.596Z,59136
2019-05-13T15:03:43.394Z,60224
2019-05-13T15:04:46.054Z,60096
2019-05-13T15:05:48.816Z,56896
2019-05-13T15:06:50.985Z,55744
2019-05-13T15:07:53.827Z,60416
2019-05-13T15:08:56.195Z,62688
2019-05-13T15:09:58.363Z,56192
2019-05-13T15:11:03.415Z,52768
2019-05-13T15:12:05.923Z,51008
2019-05-13T15:13:08.334Z,51328
2019-05-13T15:14:11.603Z,50848
2019-05-13T15:15:14.200Z,50368
2019-05-13T15:16:16.300Z,50944
2019-05-13T15:17:18.497Z,53184
2019-05-13T15:18:23.829Z,53792
2019-05-13T15:19:26.009Z,52800
2019-05-13T15:20:28.120Z,50560
2019-05-13T15:21:32.029Z,51264
2019-05-13T15:22:34.367Z,49920
2019-05-13T15:23:36.521Z,47808
2019-05-13T15:24:41.028Z,45792
2019-05-13T15:25:43.377Z,47200
2019-05-13T15:26:46.079Z,47808
2019-05-13T15:27:49.280Z,49312
2019-05-13T15:28:54.672Z,47872
2019-05-13T15:29:56.843Z,43168
2019-05-13T15:31:23.609Z,45504
2019-05-13T15:32:26.107Z,46016
2019-05-13T15:33:28.238Z,45248
2019-05-13T15:34:34.187Z,46048
2019-05-13T15:35:37.074Z,47872
2019-05-13T15:36:39.247Z,50464
2019-05-13T15:37:44.278Z,14200
2019-05-13T15:38:46.375Z,44192
2019-05-13T15:39:51.581Z,39968
2019-05-13T15:40:54.275Z,46144
2019-05-13T15:41:56.729Z,33600
2019-05-13T15:42:58.871Z,42528
2019-05-13T15:44:04.078Z,10912
2019-05-13T15:45:06.630Z,37632
2019-05-13T15:46:08.767Z,38336
2019-05-13T15:47:22.626Z,40256
2019-05-13T15:48:30.880Z,12124
2019-05-13T15:49:34.090Z,41152
2019-05-13T15:50:36.200Z,31488
2019-05-13T15:51:39.174Z,37984
2019-05-13T15:52:44.717Z,36512
2019-05-13T15:53:46.840Z,36416
2019-05-13T15:54:52.007Z,35552
2019-05-13T15:55:55.122Z,36448
2019-05-13T15:57:02.313Z,38528
2019-05-13T15:58:11.728Z,35328
2019-05-13T15:59:16.616Z,36000
2019-05-13T16:00:23.374Z,36672
2019-05-13T16:01:25.552Z,35712
2019-05-13T16:02:28.221Z,29984
2019-05-13T16:03:32.822Z,33504
2019-05-13T16:04:48.947Z,31520
2019-05-13T16:06:06.912Z,33024
2019-05-13T16:07:09.055Z,34688
2019-05-13T16:08:14.295Z,34880
2019-05-13T16:09:17.124Z,29824
2019-05-13T16:10:19.301Z,35264
2019-05-13T16:11:22.168Z,10916
2019-05-13T16:12:24.804Z,33376
2019-05-13T16:13:27.872Z,32832
2019-05-13T16:14:31.430Z,34816
2019-05-13T16:15:33.774Z,34080
2019-05-13T16:16:35.949Z,31168
2019-05-13T16:17:44.016Z,29984
2019-05-13T16:18:47.146Z,29984
2019-05-13T16:19:53.378Z,30880
2019-05-13T16:20:55.799Z,30944
2019-05-13T16:21:58.018Z,30848
2019-05-13T16:23:02.992Z,31680
2019-05-13T16:24:05.210Z,32416
2019-05-13T16:25:07.343Z,30784
2019-05-13T16:26:09.874Z,30688
2019-05-13T16:27:14.951Z,31520
2019-05-13T16:28:18.028Z,31424
2019-05-13T16:29:22.174Z,29120
2019-05-13T16:30:24.926Z,28480
2019-05-13T16:31:27.344Z,27936
2019-05-13T16:32:31.857Z,27360
2019-05-13T16:33:34.112Z,27584
2019-05-13T16:34:36.342Z,27712
2019-05-13T16:35:38.811Z,27904
2019-05-13T16:36:44.624Z,27296
2019-05-13T16:37:47.043Z,25728
2019-05-13T16:38:49.158Z,23840
2019-05-13T16:39:52.356Z,24928
2019-05-13T16:40:56.730Z,27552
2019-05-13T16:42:15.638Z,26848
2019-05-13T16:43:34.180Z,26976
2019-05-13T16:44:43.066Z,26688
2019-05-13T16:47:35.568Z,24800
2019-05-13T16:49:07.703Z,24416
2019-05-13T16:50:17.204Z,24224
2019-05-13T16:51:25.030Z,22752
2019-05-13T16:52:27.767Z,20864
2019-05-13T16:53:32.332Z,19936
2019-05-13T16:54:34.778Z,19232
2019-05-13T16:55:37.189Z,19072
2019-05-13T16:56:41.786Z,20224
2019-05-13T16:57:44.370Z,19104
2019-05-13T16:58:46.526Z,18304
2019-05-13T16:59:48.904Z,17728
2019-05-13T17:00:55.916Z,17568
2019-05-13T17:02:13.421Z,17248
2019-05-13T17:03:22.275Z,16544
2019-05-13T17:04:32.096Z,16032
2019-05-13T17:05:41.990Z,15384
2019-05-13T17:06:53.098Z,15696
2019-05-13T17:08:02.047Z,15656
2019-05-13T17:09:11.664Z,15204
2019-05-13T17:10:19.313Z,14864
2019-05-13T17:11:33.476Z,14352
2019-05-13T17:12:42.728Z,14332
2019-05-13T17:13:55.587Z,14508
2019-05-13T17:15:09.533Z,14284
2019-05-13T17:16:18.137Z,13516
2019-05-13T17:17:31.686Z,13140
2019-05-13T17:18:43.911Z,12892
2019-05-13T17:19:53.150Z,12508
2019-05-13T17:21:05.976Z,12276
2019-05-13T17:22:11.499Z,11844
2019-05-13T17:23:19.272Z,11360
2019-05-13T17:24:28.444Z,11180
2019-05-13T17:25:38.315Z,10908
2019-05-13T17:26:52.215Z,10608
2019-05-13T17:28:04.066Z,10360
2019-05-13T17:29:12.091Z,10184
2019-05-13T17:30:21.961Z,9912
2019-05-13T17:31:32.510Z,9656
2019-05-13T17:32:44.081Z,9328
2019-05-13T17:33:57.441Z,9152
2019-05-13T17:35:08.179Z,9028
2019-05-13T17:36:23.957Z,8824
2019-05-13T17:37:34.474Z,8704
2019-05-13T17:38:46.792Z,8524
2019-05-13T17:40:01.347Z,8344
2019-05-13T17:41:17.303Z,8196
2019-05-13T17:42:36.580Z,8032
2019-05-13T17:43:51.789Z,7928
2019-05-13T17:45:02.318Z,7760
2019-05-13T17:46:15.086Z,7608
2019-05-13T17:47:21.829Z,7412
2019-05-13T17:48:32.772Z,7248
2019-05-13T17:49:35.311Z,7168
2019-05-13T17:50:37.412Z,7032
2019-05-13T17:51:39.541Z,6900
2019-05-13T17:52:44.852Z,6740
2019-05-13T17:53:47.234Z,6592
2019-05-13T17:54:51.189Z,6396
2019-05-13T17:55:54.221Z,6288
2019-05-13T17:56:57.184Z,6116
2019-05-13T17:58:01.357Z,5996
2019-05-13T17:59:04.459Z,5876
2019-05-13T18:00:06.561Z,5700
2019-05-13T18:01:08.950Z,5140
2019-05-13T18:02:13.550Z,4728
2019-05-13T18:03:15.688Z,4600
2019-05-13T18:04:17.807Z,4672
2019-05-13T18:05:22.337Z,4244
2019-05-13T18:06:24.616Z,3216
2019-05-13T18:07:27.113Z,2932
2019-05-13T18:08:29.211Z,2860
2019-05-13T18:09:34.065Z,2768
2019-05-13T18:10:36.224Z,2708
2019-05-13T18:11:38.306Z,2680
2019-05-13T18:12:41.736Z,2744
2019-05-13T18:13:44.246Z,2784
2019-05-13T18:14:46.345Z,2856
2019-05-13T18:15:48.431Z,2808
2019-05-13T18:16:50.544Z,2664
2019-05-13T18:17:53.358Z,2572
2019-05-13T18:18:55.458Z,2484
2019-05-13T18:19:57.632Z,2296
2019-05-13T18:21:01.426Z,2104
2019-05-13T18:22:03.679Z,1904
2019-05-13T18:23:05.826Z,1768
2019-05-13T18:24:07.927Z,1664
2019-05-13T18:25:11.948Z,1608
2019-05-13T18:26:16.212Z,1604
2019-05-13T18:27:18.410Z,1620
2019-05-13T18:28:28.188Z,1636
2019-05-13T18:29:34.104Z,1600
2019-05-13T18:30:36.267Z,1556
2019-05-13T18:31:39.021Z,1524
2019-05-13T18:32:44.144Z,1512
2019-05-13T18:33:46.218Z,1488
2019-05-13T18:34:48.369Z,1456
2019-05-13T18:35:52.475Z,1440
2019-05-13T18:36:57.574Z,1404
2019-05-13T18:38:01.304Z,1340
2019-05-13T18:39:04.095Z,1276
2019-05-13T18:40:07.017Z,1232
2019-05-13T18:41:09.133Z,1180
2019-05-13T18:42:14.086Z,1120
2019-05-13T18:43:16.492Z,1064
2019-05-13T18:44:18.609Z,996
2019-05-13T18:45:21.992Z,932
2019-05-13T18:46:24.499Z,880
2019-05-13T18:47:26.931Z,836
2019-05-13T18:48:29.075Z,784
2019-05-13T18:49:33.819Z,732
2019-05-13T18:50:35.965Z,680
2019-05-13T18:51:38.042Z,636
2019-05-13T18:52:41.954Z,592
2019-05-13T18:53:44.224Z,548
2019-05-13T18:54:46.333Z,512
2019-05-13T18:55:48.488Z,476
2019-05-13T18:56:52.143Z,444
2019-05-13T18:57:54.435Z,412
2019-05-13T18:58:56.501Z,384
2019-05-13T18:59:58.821Z,356
2019-05-13T19:01:03.827Z,332
2019-05-13T19:02:05.900Z,312
2019-05-13T19:03:08.064Z,288
2019-05-13T19:04:11.407Z,268
2019-05-13T19:05:13.956Z,244
2019-05-13T19:06:16.318Z,224
2019-05-13T19:07:18.748Z,204
2019-05-13T19:08:23.393Z,184
2019-05-13T19:09:25.782Z,168
2019-05-13T19:10:28.316Z,156
2019-05-13T19:11:32.675Z,140
2019-05-13T19:12:34.829Z,132
2019-05-13T19:13:36.908Z,120
2019-05-13T19:14:41.006Z,112
2019-05-13T19:15:43.317Z,100
2019-05-13T19:16:45.681Z,88
2019-05-13T19:17:47.822Z,76
2019-05-13T19:18:49.928Z,68
2019-05-13T19:19:52.299Z,60
2019-05-13T19:20:54.648Z,52
2019-05-13T19:21:56.732Z,48
2019-05-13T19:23:01.069Z,40
2019-05-13T19:24:03.934Z,32
2019-05-13T19:25:06.088Z,28
2019-05-13T19:26:08.511Z,24
2019-05-13T19:27:13.262Z,20
2019-05-13T19:28:15.425Z,20
2019-05-13T19:29:17.502Z,16
2019-05-13T19:30:21.254Z,12
2019-05-13T19:31:23.763Z,12
2019-05-13T19:32:26.227Z,8
2019-05-13T19:33:28.326Z,8
2019-05-13T19:34:32.254Z,8
2019-05-13T19:35:35.256Z,4
2019-05-13T19:36:37.323Z,4
2019-05-13T19:37:39.497Z,4
2019-05-13T19:38:44.652Z,4
2019-05-13T19:39:46.819Z,4
2019-05-13T19:40:48.892Z,4
2019-05-13T19:41:51.265Z,0
2019-05-13T19:42:53.400Z,4
2019-05-13T19:43:55.479Z,4
2019-05-13T19:44:57.636Z,4
2019-05-13T19:46:01.451Z,0
2019-05-13T19:47:04.155Z,0
2019-05-13T19:48:06.282Z,0
2019-05-13T19:49:08.377Z,0
2019-05-13T19:50:10.511Z,0
2019-05-13T19:51:12.910Z,0
2019-05-13T19:52:15.069Z,0
2019-05-13T19:53:17.153Z,0
2019-05-13T19:54:19.226Z,0
2019-05-13T19:55:23.986Z,0
2019-05-13T19:56:26.470Z,0
2019-05-13T19:57:28.624Z,0
2019-05-13T19:58:33.207Z,0
2019-05-13T19:59:35.345Z,0
2019-05-13T20:00:37.421Z,0
2019-05-13T20:01:41.975Z,0
2019-05-13T20:02:44.439Z,0
2019-05-13T20:03:46.815Z,0
2019-05-13T20:04:48.936Z,0
2019-05-13T20:05:53.863Z,0
2019-05-13T20:06:56.339Z,0
2019-05-13T20:07:58.429Z,0
2019-05-13T20:09:01.416Z,0
2019-05-13T20:10:03.746Z,0
2019-05-13T20:11:05.857Z,0
2019-05-13T20:12:08.003Z,0
2019-05-13T20:13:12.994Z,0
2019-05-13T20:14:15.351Z,0
2019-05-13T20:15:17.447Z,0
2019-05-13T20:16:19.544Z,0
2019-05-13T20:17:24.442Z,0
2019-05-13T20:18:26.678Z,0
2019-05-13T20:19:42.575Z,0
2019-05-13T20:20:55.245Z,0
2019-05-13T20:21:57.349Z,0
2019-05-13T20:23:01.342Z,0
2019-05-13T20:24:03.507Z,0
2019-05-13T20:25:05.642Z,0
2019-05-13T20:26:07.737Z,0
2019-05-13T20:27:11.835Z,0
2019-05-13T20:28:14.656Z,0
2019-05-13T20:29:16.790Z,0
2019-05-13T20:30:19.169Z,0
2019-05-13T20:31:23.584Z,0
2019-05-13T20:32:25.746Z,0
2019-05-13T20:33:28.233Z,0
2019-05-13T20:34:33.119Z,0
2019-05-13T20:35:35.613Z,0
2019-05-13T20:36:37.687Z,0
2019-05-13T20:37:39.783Z,0
2019-05-13T20:38:41.857Z,0
2019-05-13T20:39:44.398Z,0
2019-05-13T20:40:46.485Z,0
2019-05-13T20:41:48.623Z,0
2019-05-13T20:42:57.234Z,0
2019-05-13T20:44:01.433Z,0
2019-05-13T20:45:03.646Z,0
2019-05-13T20:46:05.737Z,0
2019-05-13T20:47:07.888Z,0
2019-05-13T20:48:11.900Z,0
2019-05-13T20:49:14.221Z,0
2019-05-13T20:50:16.306Z,0
2019-05-13T20:51:18.381Z,0
2019-05-13T20:52:22.124Z,0
2019-05-13T20:53:24.692Z,0
2019-05-13T20:54:26.835Z,0
2019-05-13T20:55:28.943Z,0
2019-05-13T20:56:33.466Z,0
2019-05-13T20:57:35.564Z,0
2019-05-13T20:58:37.642Z,0
2019-05-13T20:59:41.334Z,0
2019-05-13T21:00:43.573Z,0
2019-05-13T21:01:45.738Z,0
2019-05-13T21:02:47.818Z,0
2019-05-13T21:03:51.491Z,0
2019-05-13T21:04:53.684Z,0
2019-05-13T21:05:55.770Z,0
2019-05-13T21:06:57.912Z,0
2019-05-13T21:08:01.677Z,0
2019-05-13T21:09:03.964Z,0
2019-05-13T21:10:06.036Z,0
2019-05-13T21:11:08.112Z,0
2019-05-13T21:12:12.812Z,0
2019-05-13T21:13:14.909Z,0
2019-05-13T21:14:17.173Z,0
2019-05-13T21:15:19.259Z,0
2019-05-13T21:16:22.006Z,0
2019-05-13T21:17:24.405Z,0
2019-05-13T21:18:26.514Z,0
2019-05-13T21:19:28.712Z,0
2019-05-13T21:20:44.483Z,0
2019-05-13T21:21:46.631Z,0
2019-05-13T21:22:48.720Z,0
2019-05-13T21:23:53.384Z,0
2019-05-13T21:24:55.465Z,0
2019-05-13T21:25:57.564Z,0
2019-05-13T21:27:01.742Z,0
2019-05-13T21:28:04.247Z,0
2019-05-13T21:29:06.686Z,0
2019-05-13T21:30:08.788Z,0
2019-05-13T21:31:13.448Z,0
2019-05-13T21:32:17.574Z,0
2019-05-13T21:33:22.954Z,0
2019-05-13T21:34:25.735Z,0
2019-05-13T21:35:27.843Z,0
2019-05-13T21:36:30.534Z,0
2019-05-13T21:37:32.990Z,0
2019-05-13T21:38:35.613Z,0
2019-05-13T21:39:37.973Z,0
2019-05-13T21:40:43.118Z,0
2019-05-13T21:41:46.043Z,0
2019-05-13T21:42:48.150Z,0
2019-05-13T21:43:53.918Z,0
2019-05-13T21:44:56.243Z,0
2019-05-13T21:45:58.334Z,0
2019-05-13T21:47:03.960Z,0
2019-05-13T21:48:06.297Z,0
2019-05-13T21:49:08.436Z,0
2019-05-13T21:50:13.359Z,0
2019-05-13T21:51:15.675Z,0
2019-05-13T21:52:17.749Z,0
2019-05-13T21:53:21.673Z,0
2019-05-13T21:54:26.952Z,0
2019-05-13T21:55:29.164Z,0
2019-05-13T21:56:31.975Z,0
2019-05-13T21:57:34.198Z,0
2019-05-13T21:58:36.581Z,0
2019-05-13T21:59:38.646Z,0
2019-05-13T22:00:47.187Z,0
2019-05-13T22:01:49.413Z,0
2019-05-13T22:02:54.262Z,0
2019-05-13T22:03:56.893Z,0
2019-05-13T22:05:00.938Z,0
2019-05-13T22:06:03.195Z,0
2019-05-13T22:07:05.591Z,0
2019-05-13T22:08:07.671Z,0
2019-05-13T22:09:11.665Z,0
2019-05-13T22:10:14.358Z,0
2019-05-13T22:11:16.893Z,0
2019-05-13T22:12:21.425Z,0
2019-05-13T22:13:23.833Z,0
2019-05-13T22:14:26.186Z,0
2019-05-13T22:15:28.367Z,0
2019-05-13T22:16:31.853Z,0
2019-05-13T22:17:34.346Z,0
2019-05-13T22:18:36.542Z,0
2019-05-13T22:19:38.613Z,0
2019-05-13T22:20:49.571Z,0
2019-05-13T22:21:55.791Z,0
2019-05-13T22:22:57.865Z,0
2019-05-13T22:24:02.212Z,0
2019-05-13T22:25:04.475Z,0
2019-05-13T22:26:06.802Z,0
2019-05-13T22:27:10.940Z,0
2019-05-13T22:28:15.628Z,0
2019-05-13T22:29:17.847Z,0
2019-05-13T22:30:24.244Z,0
2019-05-13T22:31:26.749Z,0
2019-05-13T22:32:29.136Z,0
2019-05-13T22:33:32.509Z,0
2019-05-13T22:34:34.797Z,0
2019-05-13T22:35:36.998Z,0
2019-05-13T22:36:39.086Z,0
2019-05-13T22:37:41.646Z,0
2019-05-13T22:38:43.783Z,0
2019-05-13T22:39:46.199Z,0
2019-05-13T22:40:48.359Z,0
2019-05-13T22:41:53.217Z,0
2019-05-13T22:42:56.878Z,0
2019-05-13T22:43:59.253Z,0
2019-05-13T22:45:02.759Z,0
2019-05-13T22:46:05.245Z,0
2019-05-13T22:47:07.696Z,0
2019-05-13T22:48:14.927Z,0
2019-05-13T22:49:18.271Z,0
2019-05-13T22:50:21.759Z,0
2019-05-13T22:51:24.356Z,0
2019-05-13T22:52:27.576Z,0
2019-05-13T22:53:31.771Z,0
2019-05-13T22:54:34.099Z,0
2019-05-13T22:55:36.868Z,0
2019-05-13T22:56:41.167Z,0
2019-05-13T22:57:43.425Z,0
2019-05-13T22:58:47.000Z,0
2019-05-13T22:59:49.088Z,0
2019-05-13T23:00:54.078Z,0
2019-05-13T23:01:56.611Z,0
2019-05-13T23:03:01.595Z,0
2019-05-13T23:04:04.734Z,0
2019-05-13T23:05:07.022Z,0
2019-05-13T23:06:09.127Z,0
2019-05-13T23:07:14.549Z,0
2019-05-13T23:08:17.641Z,0
2019-05-13T23:09:21.483Z,0
2019-05-13T23:10:23.962Z,0
2019-05-13T23:11:26.410Z,0
2019-05-13T23:12:32.800Z,0
2019-05-13T23:13:35.998Z,0
2019-05-13T23:14:41.351Z,0
2019-05-13T23:15:43.829Z,0
2019-05-13T23:16:46.966Z,0
2019-05-13T23:17:51.859Z,0
2019-05-13T23:18:57.486Z,0
2019-05-13T23:20:01.292Z,0
2019-05-13T23:21:06.332Z,0
2019-05-13T23:22:13.607Z,0
2019-05-13T23:23:16.923Z,0
2019-05-13T23:24:23.617Z,0
2019-05-13T23:25:27.963Z,0
2019-05-13T23:26:31.518Z,0
2019-05-13T23:27:36.525Z,0
2019-05-13T23:28:41.539Z,0
2019-05-13T23:29:47.333Z,0
2019-05-13T23:30:53.585Z,0
2019-05-13T23:31:55.845Z,0
2019-05-13T23:32:58.018Z,0
2019-05-13T23:34:01.367Z,0
2019-05-13T23:35:06.395Z,0
2019-05-13T23:36:13.646Z,0
2019-05-13T23:37:15.711Z,0
2019-05-13T23:38:17.849Z,0
2019-05-13T23:39:22.386Z,0
2019-05-13T23:40:24.480Z,0
2019-05-13T23:41:26.602Z,0
2019-05-13T23:42:28.698Z,0
2019-05-13T23:43:33.549Z,0
2019-05-13T23:44:35.639Z,0
2019-05-13T23:45:38.065Z,0
2019-05-13T23:46:42.013Z,0
2019-05-13T23:47:44.293Z,0
2019-05-13T23:48:46.438Z,0
2019-05-13T23:49:48.523Z,0
2019-05-13T23:50:53.062Z,0
2019-05-13T23:51:55.657Z,0
2019-05-13T23:52:57.905Z,0
2019-05-13T23:54:01.568Z,0
2019-05-13T23:55:05.871Z,0
2019-05-13T23:56:08.445Z,0
2019-05-13T23:57:14.154Z,0
2019-05-13T23:58:32.073Z,0
2019-05-13T23:59:48.507Z,0
